createdAt,value
2019-05-10T00:00:16.333Z,74.57
2019-05-10T00:03:02.998Z,75.56
2019-05-10T00:05:51.104Z,76.98
2019-05-10T00:08:37.998Z,76.56
2019-05-10T00:11:29.666Z,76.41
2019-05-10T00:14:34.467Z,75.40
2019-05-10T00:17:19.040Z,76.20
2019-05-10T00:19:51.348Z,77.14
2019-05-10T00:22:22.369Z,77.70
2019-05-10T00:25:04.796Z,76.67
2019-05-10T00:27:31.970Z,77.43
2019-05-10T00:30:01.460Z,77.51
2019-05-10T00:32:34.914Z,78.13
2019-05-10T00:35:10.833Z,78.35
2019-05-10T00:37:45.004Z,78.77
2019-05-10T00:40:14.099Z,79.62
2019-05-10T00:42:43.130Z,77.68
2019-05-10T00:45:12.415Z,77.22
2019-05-10T00:47:41.526Z,77.64
2019-05-10T00:50:10.381Z,77.45
2019-05-10T00:52:39.403Z,76.99
2019-05-10T00:55:18.348Z,77.19
2019-05-10T00:57:41.948Z,77.17
2019-05-10T01:00:11.259Z,76.57
2019-05-10T01:02:40.431Z,76.55
2019-05-10T01:05:12.607Z,75.90
2019-05-10T01:07:41.687Z,76.30
2019-05-10T01:10:11.314Z,77.31
2019-05-10T01:12:40.359Z,78.21
2019-05-10T01:15:12.396Z,76.47
2019-05-10T01:17:46.542Z,77.26
2019-05-10T01:20:18.218Z,78.49
2019-05-10T01:22:48.528Z,77.32
2019-05-10T01:25:33.938Z,76.58
2019-05-10T01:27:50.243Z,78.07
2019-05-10T01:30:20.670Z,77.96
2019-05-10T01:32:51.826Z,76.67
2019-05-10T01:35:20.864Z,75.27
2019-05-10T01:37:51.157Z,75.91
2019-05-10T01:40:22.484Z,76.34
2019-05-10T01:42:51.687Z,76.21
2019-05-10T01:45:20.716Z,74.88
2019-05-10T01:47:49.834Z,76.01
2019-05-10T01:50:25.465Z,75.75
2019-05-10T01:52:54.662Z,77.08
2019-05-10T01:55:28.667Z,76.86
2019-05-10T01:58:06.576Z,76.60
2019-05-10T02:00:37.513Z,75.98
2019-05-10T02:03:07.565Z,76.35
2019-05-10T02:05:36.632Z,76.84
2019-05-10T02:08:10.210Z,76.13
2019-05-10T02:10:42.588Z,76.13
2019-05-10T02:13:14.115Z,75.49
2019-05-10T02:15:43.174Z,75.44
2019-05-10T02:18:12.363Z,75.75
2019-05-10T02:20:41.504Z,76.59
2019-05-10T02:23:10.651Z,74.94
2019-05-10T02:25:40.027Z,72.27
2019-05-10T02:28:09.061Z,73.46
2019-05-10T02:30:42.357Z,72.94
2019-05-10T02:33:14.519Z,72.53
2019-05-10T02:35:54.845Z,75.18
2019-05-10T02:38:29.264Z,75.89
2019-05-10T02:41:01.567Z,74.41
2019-05-10T02:43:34.899Z,74.86
2019-05-10T02:46:05.196Z,73.71
2019-05-10T02:48:34.256Z,72.87
2019-05-10T02:51:03.332Z,71.47
2019-05-10T02:53:32.440Z,72.03
2019-05-10T02:56:01.838Z,73.46
2019-05-10T02:58:32.946Z,75.52
2019-05-10T03:01:02.628Z,73.66
2019-05-10T03:03:33.078Z,74.62
2019-05-10T03:06:04.630Z,72.72
2019-05-10T03:08:52.863Z,73.63
2019-05-10T03:11:21.938Z,74.30
2019-05-10T03:14:00.279Z,73.70
2019-05-10T03:16:36.665Z,73.30
2019-05-10T03:19:08.077Z,73.86
2019-05-10T03:21:39.181Z,73.67
2019-05-10T03:24:08.226Z,74.35
2019-05-10T03:26:50.277Z,73.76
2019-05-10T03:29:11.358Z,73.00
2019-05-10T03:31:40.525Z,74.33
2019-05-10T03:34:10.827Z,72.50
2019-05-10T03:36:44.545Z,71.25
2019-05-10T03:39:15.644Z,71.70
2019-05-10T03:41:44.686Z,72.78
2019-05-10T03:44:13.724Z,74.47
2019-05-10T03:46:42.819Z,77.11
2019-05-10T03:49:11.889Z,78.27
2019-05-10T03:51:41.114Z,77.63
2019-05-10T03:54:12.853Z,76.36
2019-05-10T03:56:44.861Z,75.32
2019-05-10T03:59:18.422Z,74.27
2019-05-10T04:01:51.736Z,74.53
2019-05-10T04:04:23.296Z,75.54
2019-05-10T04:06:52.430Z,76.57
2019-05-10T04:09:22.913Z,76.91
2019-05-10T04:12:01.048Z,76.75
2019-05-10T04:14:33.487Z,75.19
2019-05-10T04:17:02.516Z,74.01
2019-05-10T04:19:31.678Z,74.45
2019-05-10T04:22:03.112Z,75.09
2019-05-10T04:24:36.175Z,72.62
2019-05-10T04:27:08.133Z,70.66
2019-05-10T04:29:39.215Z,72.01
2019-05-10T04:32:09.683Z,72.45
2019-05-10T04:34:43.220Z,72.88
2019-05-10T04:37:13.918Z,73.95
2019-05-10T04:39:43.077Z,74.26
2019-05-10T04:42:12.157Z,71.97
2019-05-10T04:44:41.281Z,71.66
2019-05-10T04:47:11.040Z,73.79
2019-05-10T04:49:45.313Z,73.25
2019-05-10T04:52:14.399Z,73.97
2019-05-10T04:54:43.824Z,73.52
2019-05-10T04:57:12.869Z,73.28
2019-05-10T04:59:46.901Z,70.07
2019-05-10T05:02:21.860Z,67.76
2019-05-10T05:04:47.953Z,68.19
2019-05-10T05:07:17.061Z,69.56
2019-05-10T05:09:47.712Z,68.64
2019-05-10T05:12:19.952Z,67.71
2019-05-10T05:14:49.063Z,68.27
2019-05-10T05:17:18.265Z,67.87
2019-05-10T05:19:47.339Z,69.33
2019-05-10T05:22:17.086Z,67.85
2019-05-10T05:24:49.112Z,69.92
2019-05-10T05:27:18.202Z,71.24
2019-05-10T05:29:49.174Z,72.64
2019-05-10T05:32:21.089Z,71.11
2019-05-10T05:34:50.208Z,69.68
2019-05-10T05:37:22.383Z,67.02
2019-05-10T05:39:54.342Z,68.73
2019-05-10T05:42:27.916Z,64.87
2019-05-10T05:44:59.347Z,64.18
2019-05-10T05:47:29.244Z,65.06
2019-05-10T05:50:04.044Z,67.90
2019-05-10T05:52:37.312Z,66.89
2019-05-10T05:55:08.813Z,69.52
2019-05-10T05:57:40.821Z,67.26
2019-05-10T06:00:10.289Z,66.22
2019-05-10T06:02:44.842Z,70.99
2019-05-10T06:05:34.297Z,71.90
2019-05-10T06:07:52.467Z,71.37
2019-05-10T06:10:24.856Z,73.01
2019-05-10T06:12:53.917Z,72.69
2019-05-10T06:15:29.074Z,71.58
2019-05-10T06:17:57.567Z,69.16
2019-05-10T06:20:29.570Z,68.60
2019-05-10T06:23:06.295Z,68.68
2019-05-10T06:25:39.247Z,68.97
2019-05-10T06:28:03.754Z,67.25
2019-05-10T06:30:32.819Z,69.63
2019-05-10T06:33:11.998Z,67.99
2019-05-10T06:35:32.883Z,64.83
2019-05-10T06:38:06.696Z,66.46
2019-05-10T06:40:44.483Z,68.76
2019-05-10T06:43:13.634Z,70.18
2019-05-10T06:45:41.184Z,67.56
2019-05-10T06:48:10.289Z,66.31
2019-05-10T06:50:39.363Z,68.33
2019-05-10T06:53:10.972Z,67.71
2019-05-10T06:55:39.383Z,68.60
2019-05-10T06:58:11.584Z,69.34
2019-05-10T07:00:44.854Z,66.96
2019-05-10T07:03:11.623Z,66.86
2019-05-10T07:05:41.043Z,65.62
2019-05-10T07:08:19.673Z,65.62
2019-05-10T07:10:46.272Z,64.92
2019-05-10T07:13:22.636Z,62.71
2019-05-10T07:15:51.748Z,61.43
2019-05-10T07:18:22.540Z,61.34
2019-05-10T07:20:53.773Z,61.98
2019-05-10T07:23:23.098Z,60.86
2019-05-10T07:25:53.120Z,61.11
2019-05-10T07:28:22.824Z,65.90
2019-05-10T07:30:54.177Z,66.80
2019-05-10T07:33:26.442Z,67.08
2019-05-10T07:35:56.948Z,67.57
2019-05-10T07:38:30.898Z,64.55
2019-05-10T07:40:58.921Z,66.16
2019-05-10T07:43:28.971Z,66.50
2019-05-10T07:46:06.204Z,65.32
2019-05-10T07:48:33.762Z,62.90
2019-05-10T07:51:10.312Z,62.35
2019-05-10T07:53:40.869Z,60.40
2019-05-10T07:56:10.075Z,62.63
2019-05-10T07:58:43.336Z,64.21
2019-05-10T08:01:10.728Z,63.04
2019-05-10T08:03:44.374Z,62.05
2019-05-10T08:06:15.365Z,61.10
2019-05-10T08:08:49.668Z,66.95
2019-05-10T08:11:21.514Z,67.57
2019-05-10T08:13:50.558Z,69.30
2019-05-10T08:16:22.678Z,69.22
2019-05-10T08:18:50.589Z,66.75
2019-05-10T08:21:23.803Z,63.86
2019-05-10T08:23:54.104Z,63.52
2019-05-10T08:26:24.895Z,66.26
2019-05-10T08:28:54.604Z,64.14
2019-05-10T08:31:33.815Z,64.13
2019-05-10T08:34:07.893Z,63.31
2019-05-10T08:36:45.847Z,62.14
2019-05-10T08:39:14.592Z,56.92
2019-05-10T08:41:45.788Z,58.08
2019-05-10T08:44:19.417Z,52.85
2019-05-10T08:46:46.430Z,51.46
2019-05-10T08:49:15.491Z,50.95
2019-05-10T08:51:49.116Z,50.73
2019-05-10T08:54:18.529Z,52.08
2019-05-10T08:56:54.968Z,51.59
2019-05-10T08:59:26.649Z,51.57
2019-05-10T09:02:02.195Z,50.09
2019-05-10T09:04:42.024Z,51.07
2019-05-10T09:07:04.176Z,49.78
2019-05-10T09:09:45.892Z,51.29
2019-05-10T09:12:15.248Z,51.42
2019-05-10T09:14:48.845Z,51.87
2019-05-10T09:17:23.584Z,48.58
2019-05-10T09:19:51.881Z,49.64
2019-05-10T09:22:32.501Z,48.50
2019-05-10T09:25:01.828Z,48.18
2019-05-10T09:27:42.886Z,48.80
2019-05-10T09:30:14.209Z,47.04
2019-05-10T09:32:48.139Z,45.40
2019-05-10T09:35:18.463Z,47.29
2019-05-10T09:37:54.052Z,45.78
2019-05-10T09:40:18.911Z,48.24
2019-05-10T09:42:52.286Z,48.60
2019-05-10T09:45:24.369Z,49.74
2019-05-10T09:47:53.893Z,51.26
2019-05-10T09:50:30.378Z,48.06
2019-05-10T09:52:57.102Z,47.47
2019-05-10T09:55:28.026Z,50.37
2019-05-10T09:57:58.326Z,50.13
2019-05-10T10:01:09.479Z,50.23
2019-05-10T10:03:29.900Z,49.77
2019-05-10T10:06:07.546Z,48.64
2019-05-10T10:08:34.780Z,48.94
2019-05-10T10:11:13.519Z,51.18
2019-05-10T10:13:43.402Z,50.16
2019-05-10T10:16:10.252Z,50.89
2019-05-10T10:18:39.407Z,48.53
2019-05-10T10:21:13.250Z,50.79
2019-05-10T10:23:42.894Z,48.80
2019-05-10T10:26:18.652Z,50.93
2019-05-10T10:28:49.657Z,51.48
2019-05-10T10:31:29.536Z,50.89
2019-05-10T10:33:58.340Z,50.69
2019-05-10T10:36:24.398Z,50.18
2019-05-10T10:38:53.478Z,49.50
2019-05-10T10:41:31.620Z,49.73
2019-05-10T10:43:58.136Z,50.70
2019-05-10T10:46:28.335Z,48.64
2019-05-10T10:49:00.539Z,50.14
2019-05-10T10:51:32.075Z,50.71
2019-05-10T10:54:00.665Z,49.75
2019-05-10T10:56:31.259Z,49.18
2019-05-10T10:59:00.824Z,48.68
2019-05-10T11:01:45.643Z,49.20
2019-05-10T11:04:08.099Z,48.55
2019-05-10T11:06:39.797Z,48.12
2019-05-10T11:09:09.274Z,49.01
2019-05-10T11:11:44.720Z,49.06
2019-05-10T11:14:13.832Z,48.87
2019-05-10T11:16:46.703Z,49.93
2019-05-10T11:19:16.941Z,50.47
2019-05-10T11:21:53.617Z,51.52
2019-05-10T11:24:32.337Z,51.56
2019-05-10T11:27:01.602Z,50.71
2019-05-10T11:29:33.507Z,52.07
2019-05-10T11:32:15.266Z,51.01
2019-05-10T11:34:38.833Z,50.80
2019-05-10T11:37:10.128Z,51.45
2019-05-10T11:39:45.223Z,53.13
2019-05-10T11:42:15.522Z,53.03
2019-05-10T11:44:52.825Z,54.58
2019-05-10T11:47:27.120Z,58.59
2019-05-10T11:50:05.815Z,60.11
2019-05-10T11:52:34.675Z,58.45
2019-05-10T11:55:02.970Z,56.90
2019-05-10T11:57:33.114Z,55.73
2019-05-10T12:00:03.499Z,54.25
2019-05-10T12:02:38.777Z,54.39
2019-05-10T12:05:16.644Z,52.73
2019-05-10T12:07:45.401Z,55.00
2019-05-10T12:10:18.332Z,53.20
2019-05-10T12:15:13.743Z,54.30
2019-05-10T12:17:46.379Z,53.77
2019-05-10T12:20:16.871Z,54.25
2019-05-10T12:22:51.707Z,55.01
2019-05-10T12:26:13.468Z,57.59
2019-05-10T12:26:16.008Z,56.27
2019-05-10T12:27:52.514Z,58.20
2019-05-10T12:30:22.503Z,59.38
2019-05-10T12:32:56.281Z,57.47
2019-05-10T12:35:35.662Z,56.88
2019-05-10T12:37:58.213Z,57.25
2019-05-10T12:40:27.375Z,55.57
2019-05-10T12:42:56.445Z,55.34
2019-05-10T12:45:25.641Z,54.21
2019-05-10T12:47:56.324Z,52.12
2019-05-10T12:50:25.464Z,52.68
2019-05-10T12:53:03.381Z,52.96
2019-05-10T12:55:25.727Z,53.59
2019-05-10T12:57:54.779Z,53.70
2019-05-10T13:00:23.959Z,53.32
2019-05-10T13:02:54.321Z,52.08
2019-05-10T13:05:30.768Z,53.79
2019-05-10T13:07:55.872Z,53.25
2019-05-10T13:10:29.610Z,53.11
2019-05-10T13:12:59.628Z,52.00
2019-05-10T13:15:33.475Z,51.60
2019-05-10T13:18:06.231Z,52.85
2019-05-10T13:20:36.577Z,54.65
2019-05-10T13:23:10.093Z,54.94
2019-05-10T13:25:40.390Z,54.09
2019-05-10T13:28:14.536Z,53.95
2019-05-10T13:30:43.832Z,53.87
2019-05-10T13:33:28.602Z,52.61
2019-05-10T13:35:56.614Z,53.03
2019-05-10T13:38:29.059Z,54.59
2019-05-10T13:41:01.078Z,54.67
2019-05-10T13:43:30.158Z,54.87
2019-05-10T13:45:59.930Z,55.99
2019-05-10T13:48:29.120Z,55.50
2019-05-10T13:50:58.272Z,55.26
2019-05-10T13:53:27.360Z,55.32
2019-05-10T13:55:56.408Z,53.34
2019-05-10T13:58:26.317Z,53.73
2019-05-10T14:01:06.488Z,53.88
2019-05-10T14:03:43.234Z,54.04
2019-05-10T14:06:02.515Z,54.57
2019-05-10T14:08:32.533Z,53.07
2019-05-10T14:11:02.150Z,50.94
2019-05-10T14:13:41.180Z,51.15
2019-05-10T14:16:07.153Z,53.65
2019-05-10T14:18:40.417Z,53.04
2019-05-10T14:21:09.728Z,52.57
2019-05-10T14:23:38.881Z,55.77
2019-05-10T14:26:09.238Z,53.80
2019-05-10T14:28:42.016Z,54.78
2019-05-10T14:31:11.073Z,56.54
2019-05-10T14:33:40.488Z,53.94
2019-05-10T14:36:10.134Z,50.38
2019-05-10T14:38:39.332Z,53.34
2019-05-10T14:41:10.707Z,52.19
2019-05-10T14:43:42.302Z,51.06
2019-05-10T14:46:13.773Z,51.19
2019-05-10T14:48:45.251Z,49.89
2019-05-10T14:51:16.456Z,50.77
2019-05-10T14:53:45.759Z,48.63
2019-05-10T14:56:15.378Z,46.47
2019-05-10T14:58:44.528Z,49.16
2019-05-10T15:01:13.605Z,46.60
2019-05-10T15:03:48.904Z,44.52
2019-05-10T15:06:18.360Z,42.64
2019-05-10T15:08:53.912Z,45.67
2019-05-10T15:11:26.524Z,48.22
2019-05-10T15:13:54.996Z,46.36
2019-05-10T15:16:27.096Z,46.56
2019-05-10T15:19:01.956Z,49.38
2019-05-10T15:21:34.453Z,50.40
2019-05-10T15:24:06.642Z,47.07
2019-05-10T15:26:43.724Z,47.16
2019-05-10T15:29:08.313Z,49.06
2019-05-10T15:31:42.440Z,48.75
2019-05-10T15:34:13.083Z,47.95
2019-05-10T15:36:42.114Z,49.71
2019-05-10T15:39:14.063Z,49.41
2019-05-10T15:41:43.160Z,48.16
2019-05-10T15:44:12.624Z,48.70
2019-05-10T15:46:42.595Z,48.37
2019-05-10T15:49:13.502Z,47.45
2019-05-10T15:51:55.251Z,48.71
2019-05-10T15:54:23.396Z,48.29
2019-05-10T15:56:55.565Z,44.88
2019-05-10T15:59:30.337Z,44.69
2019-05-10T16:01:59.836Z,47.49
2019-05-10T16:04:28.961Z,45.07
2019-05-10T16:07:01.617Z,49.14
2019-05-10T16:09:30.973Z,48.65
2019-05-10T16:12:08.406Z,48.36
2019-05-10T16:14:39.032Z,48.45
2019-05-10T16:17:10.245Z,47.65
2019-05-10T16:19:44.805Z,47.17
2019-05-10T16:22:13.860Z,47.63
2019-05-10T16:24:43.208Z,52.30
2019-05-10T16:27:15.295Z,53.47
2019-05-10T16:29:45.700Z,52.03
2019-05-10T16:32:14.870Z,51.28
2019-05-10T16:34:46.123Z,53.70
2019-05-10T16:37:15.288Z,54.14
2019-05-10T16:39:44.415Z,53.59
2019-05-10T16:42:15.916Z,54.52
2019-05-10T16:44:44.709Z,54.39
2019-05-10T16:47:13.834Z,53.63
2019-05-10T16:49:47.719Z,54.01
2019-05-10T16:52:14.345Z,51.97
2019-05-10T16:54:43.829Z,53.77
2019-05-10T16:57:16.395Z,55.26
2019-05-10T16:59:44.772Z,54.07
2019-05-10T17:02:15.315Z,53.13
2019-05-10T17:04:44.412Z,52.13
2019-05-10T17:07:18.828Z,50.80
2019-05-10T17:09:49.579Z,51.35
2019-05-10T17:12:27.422Z,52.35
2019-05-10T17:15:02.752Z,52.75
2019-05-10T17:17:31.231Z,52.48
2019-05-10T17:20:07.685Z,51.90
2019-05-10T17:22:37.666Z,51.81
2019-05-10T17:25:08.868Z,52.59
2019-05-10T17:27:40.223Z,51.88
2019-05-10T17:30:11.088Z,52.36
2019-05-10T17:32:44.521Z,52.48
2019-05-10T17:35:14.015Z,50.97
2019-05-10T17:37:48.188Z,51.31
2019-05-10T17:40:17.637Z,51.58
2019-05-10T17:42:47.023Z,51.30
2019-05-10T17:45:19.044Z,51.54
2019-05-10T17:47:48.917Z,51.19
2019-05-10T17:50:19.528Z,50.49
2019-05-10T17:52:48.582Z,51.48
2019-05-10T17:55:18.953Z,51.05
2019-05-10T17:57:54.367Z,51.71
2019-05-10T18:00:20.207Z,51.82
2019-05-10T18:02:49.383Z,51.95
2019-05-10T18:05:18.737Z,52.56
2019-05-10T18:07:49.458Z,52.01
2019-05-10T18:10:22.260Z,52.37
2019-05-10T18:12:57.307Z,53.17
2019-05-10T18:15:27.631Z,52.23
2019-05-10T18:18:02.661Z,52.51
2019-05-10T18:20:41.424Z,52.30
2019-05-10T18:23:05.884Z,52.62
2019-05-10T18:25:35.008Z,52.50
2019-05-10T18:28:04.049Z,52.93
2019-05-10T18:30:36.195Z,53.14
2019-05-10T18:33:12.480Z,53.26
2019-05-10T18:35:39.315Z,53.71
2019-05-10T18:38:08.413Z,53.09
2019-05-10T18:40:38.944Z,53.81
2019-05-10T18:43:07.992Z,54.17
2019-05-10T18:45:42.450Z,53.83
2019-05-10T18:48:11.583Z,54.88
2019-05-10T18:50:45.249Z,54.75
2019-05-10T18:53:17.617Z,54.13
2019-05-10T18:55:51.808Z,54.63
2019-05-10T18:58:23.224Z,55.53
2019-05-10T19:00:56.092Z,55.69
2019-05-10T19:03:27.972Z,55.61
2019-05-10T19:05:53.694Z,55.96
2019-05-10T19:08:22.793Z,55.48
2019-05-10T19:10:51.885Z,55.68
2019-05-10T19:13:24.262Z,56.36
2019-05-10T19:15:58.220Z,56.50
2019-05-10T19:18:25.584Z,56.52
2019-05-10T19:20:55.247Z,56.23
2019-05-10T19:23:28.428Z,55.74
2019-05-10T19:25:57.966Z,56.74
2019-05-10T19:28:28.413Z,56.38
2019-05-10T19:30:58.789Z,55.47
2019-05-10T19:33:36.608Z,55.43
2019-05-10T19:36:02.764Z,55.55
2019-05-10T19:38:31.899Z,57.28
2019-05-10T19:41:00.983Z,56.82
2019-05-10T19:43:30.420Z,56.52
2019-05-10T19:46:03.363Z,57.45
2019-05-10T19:48:35.700Z,57.60
2019-05-10T19:51:09.674Z,57.64
2019-05-10T19:53:36.339Z,57.62
2019-05-10T19:56:06.012Z,57.49
2019-05-10T19:58:38.301Z,57.27
2019-05-10T20:01:11.326Z,57.20
2019-05-10T20:03:40.401Z,57.25
2019-05-10T20:06:09.589Z,57.25
2019-05-10T20:08:38.655Z,56.86
2019-05-10T20:11:07.736Z,57.19
2019-05-10T20:13:36.782Z,57.60
2019-05-10T20:16:05.867Z,58.25
2019-05-10T20:18:37.034Z,59.29
2019-05-10T20:21:07.918Z,59.63
2019-05-10T20:23:36.945Z,60.17
2019-05-10T20:26:07.960Z,60.12
2019-05-10T20:28:43.031Z,60.18
2019-05-10T20:31:12.166Z,60.29
2019-05-10T20:33:41.275Z,60.69
2019-05-10T20:36:11.305Z,60.12
2019-05-10T20:38:40.339Z,59.81
2019-05-10T20:41:09.776Z,59.57
2019-05-10T20:43:40.838Z,60.58
2019-05-10T20:46:11.567Z,59.89
2019-05-10T20:48:41.891Z,60.26
2019-05-10T20:51:15.221Z,60.42
2019-05-10T20:53:47.707Z,60.15
2019-05-10T20:56:15.760Z,61.25
2019-05-10T20:58:48.225Z,61.03
2019-05-10T21:01:21.437Z,61.65
2019-05-10T21:03:53.696Z,60.82
2019-05-10T21:06:25.996Z,60.59
2019-05-10T21:08:55.143Z,60.13
2019-05-10T21:11:25.420Z,60.26
2019-05-10T21:13:57.773Z,60.04
2019-05-10T21:16:25.321Z,60.71
2019-05-10T21:18:55.700Z,62.06
2019-05-10T21:21:24.905Z,64.17
2019-05-10T21:23:53.984Z,63.48
2019-05-10T21:26:24.499Z,62.50
2019-05-10T21:28:55.252Z,63.36
2019-05-10T21:31:24.425Z,63.65
2019-05-10T21:34:08.737Z,63.73
2019-05-10T21:36:24.832Z,64.14
2019-05-10T21:38:55.390Z,64.67
2019-05-10T21:41:26.953Z,65.45
2019-05-10T21:43:56.086Z,65.55
2019-05-10T21:46:25.132Z,65.11
2019-05-10T21:48:54.223Z,64.71
2019-05-10T21:51:23.279Z,64.70
2019-05-10T21:53:52.354Z,64.55
2019-05-10T21:56:21.431Z,64.50
2019-05-10T21:58:51.654Z,65.30
2019-05-10T22:01:25.155Z,65.69
2019-05-10T22:03:59.580Z,65.19
2019-05-10T22:06:28.643Z,63.95
2019-05-10T22:08:59.033Z,64.84
2019-05-10T22:11:28.127Z,64.17
2019-05-10T22:13:57.197Z,65.37
2019-05-10T22:16:28.232Z,68.09
2019-05-10T22:19:06.562Z,69.92
2019-05-10T22:21:41.466Z,73.19
2019-05-10T22:24:10.558Z,75.96
2019-05-10T22:26:41.813Z,76.96
2019-05-10T22:29:15.744Z,77.17
2019-05-10T22:31:50.083Z,78.05
2019-05-10T22:34:25.202Z,77.77
2019-05-10T22:36:55.348Z,77.92
2019-05-10T22:39:27.412Z,75.84
2019-05-10T22:41:56.892Z,75.15
2019-05-10T22:44:25.981Z,75.42
2019-05-10T22:46:58.515Z,75.16
2019-05-10T22:49:32.507Z,74.80
2019-05-10T22:52:04.462Z,74.95
2019-05-10T22:54:38.540Z,75.63
2019-05-10T22:57:18.068Z,74.61
2019-05-10T22:59:49.887Z,76.54
2019-05-10T23:02:19.813Z,76.17
2019-05-10T23:04:48.993Z,76.32
2019-05-10T23:07:18.114Z,78.73
2019-05-10T23:09:47.489Z,77.34
2019-05-10T23:12:16.563Z,77.69
2019-05-10T23:14:45.624Z,77.94
2019-05-10T23:17:14.731Z,78.35
2019-05-10T23:19:54.443Z,78.37
2019-05-10T23:22:23.535Z,80.32
2019-05-10T23:24:53.542Z,80.27
2019-05-10T23:27:22.627Z,79.32
2019-05-10T23:29:51.731Z,79.86
2019-05-10T23:32:20.869Z,78.11
2019-05-10T23:34:49.898Z,78.54
2019-05-10T23:37:19.741Z,78.51
2019-05-10T23:39:51.649Z,77.82
2019-05-10T23:42:20.757Z,76.72
2019-05-10T23:44:55.824Z,75.90
2019-05-10T23:47:28.122Z,76.82
2019-05-10T23:49:57.178Z,77.17
2019-05-10T23:52:26.252Z,77.97
2019-05-10T23:54:55.468Z,77.87
2019-05-10T23:57:24.691Z,77.30
2019-05-10T23:59:58.064Z,77.30
